Claymont, Delaware
Current Conditions -  °F | °C
As of 2:51 AM on Sunday 26 Oct 2014 (Local Time) from KILG Reporting Station
Overcast Overcast  
Wind Chill: 15°   Ceiling: 7000
Heat Index: 15°   Visibility: 10mi
Dew Point:   Wind: 7mph
Humidity: 64%   Direction: 240°WSW
Pressure: 29.63"   Gusts: NA
Location:  39.8°N, 75.46°W
Report Text: KILG 260651Z 24006KT 10SM OVC070 15/08 A2963 RMK AO2 SLP033 T01500083
Loading
Personal Weather Stations






























Interactive Weather Map
Tropical Storm Tracking
New forecast layout! Learn more

10-Day Weather Forecast

Advertisements
Track Severe Weather on mobile